Time;durP1;ratioP1;P1;durP2;ratioP2;P2;SDS_P1;SDS_P2;PMS_P1;PMS_P2;Temp;Humidity;BMP_temperature;BMP_pressure;BME280_temperature;BME280_humidity;BME280_pressure;Samples;Min_cycle;Max_cycle;Signal;HPM_P1;HPM_P2
2020/12/26 00:01:42;;;;;;;7.57;4.07;;;;;;;23.38;37.21;94419.69;5052061;28;20041;-78
2020/12/26 00:04:08;;;;;;;8.63;4.47;;;;;;;23.30;37.09;94413.34;5051911;28;20481;-78
2020/12/26 00:06:33;;;;;;;6.97;4.28;;;;;;;23.20;37.55;94404.16;5063781;28;20099;-77
2020/12/26 00:08:59;;;;;;;6.40;3.95;;;;;;;23.19;37.58;94424.47;5032005;28;20020;-77
2020/12/26 00:11:24;;;;;;;7.38;4.28;;;;;;;23.16;36.83;94414.59;5055882;28;20486;-78
2020/12/26 00:13:50;;;;;;;6.65;3.88;;;;;;;22.94;37.76;94401.41;5066565;28;20459;-81
2020/12/26 00:16:15;;;;;;;7.40;3.83;;;;;;;23.03;37.87;94420.06;5051623;28;20095;-78
2020/12/26 00:18:41;;;;;;;7.72;3.83;;;;;;;22.97;37.82;94424.84;5057620;28;20477;-77
2020/12/26 00:21:08;;;;;;;7.00;4.65;;;;;;;22.94;37.99;94415.00;5038572;28;20044;-77
2020/12/26 00:23:34;;;;;;;6.07;3.90;;;;;;;22.89;37.91;94413.06;5048021;28;20020;-79
2020/12/26 00:25:59;;;;;;;6.45;3.85;;;;;;;22.86;38.12;94434.44;5051090;28;20548;-77
2020/12/26 00:28:25;;;;;;;5.65;3.63;;;;;;;22.78;38.19;94428.09;5050491;28;20477;-78
2020/12/26 00:30:50;;;;;;;7.20;4.65;;;;;;;22.77;38.31;94432.09;5050239;28;20087;-80
2020/12/26 00:33:15;;;;;;;6.63;3.92;;;;;;;22.74;38.16;94433.13;5051539;28;20024;-83
2020/12/26 00:35:41;;;;;;;6.28;3.85;;;;;;;22.70;38.26;94443.59;5055120;28;20021;-79
2020/12/26 00:38:06;;;;;;;8.18;4.28;;;;;;;22.66;38.71;94426.81;5048150;28;20076;-78
2020/12/26 00:40:32;;;;;;;5.28;3.60;;;;;;;22.47;38.53;94426.84;5048041;28;20094;-78
2020/12/26 00:42:57;;;;;;;6.68;4.30;;;;;;;22.59;38.40;94443.75;5047673;28;20021;-78
2020/12/26 00:45:22;;;;;;;6.35;4.07;;;;;;;22.56;38.50;94433.91;5050334;28;20025;-78
2020/12/26 00:47:48;;;;;;;6.30;3.80;;;;;;;22.52;38.58;94444.34;5054487;28;20013;-77
2020/12/26 00:50:13;;;;;;;7.32;4.35;;;;;;;22.47;38.79;94432.28;5047809;28;20029;-77
2020/12/26 00:52:39;;;;;;;6.22;4.00;;;;;;;22.45;38.71;94423.16;5051815;28;20025;-77
2020/12/26 00:55:04;;;;;;;5.93;3.75;;;;;;;22.41;38.73;94449.97;5052101;28;20020;-78
2020/12/26 00:57:30;;;;;;;6.45;3.97;;;;;;;22.39;38.78;94447.03;5055805;28;20028;-77
2020/12/26 00:59:55;;;;;;;6.28;3.83;;;;;;;22.38;38.63;94456.44;5070625;28;20787;-78
2020/12/26 01:02:20;;;;;;;6.03;4.25;;;;;;;22.31;38.56;94424.38;5048611;28;20048;-78
2020/12/26 01:04:46;;;;;;;6.28;3.97;;;;;;;22.31;38.93;94440.69;5047869;28;20409;-79
2020/12/26 01:07:12;;;;;;;5.88;3.88;;;;;;;22.26;39.55;94441.50;5046635;28;20041;-78
2020/12/26 01:09:37;;;;;;;5.93;4.20;;;;;;;22.21;38.86;94436.13;5051263;28;20021;-77
2020/12/26 01:12:03;;;;;;;6.15;3.90;;;;;;;22.23;39.27;94450.69;5046769;28;20025;-77
2020/12/26 01:14:28;;;;;;;5.95;4.07;;;;;;;22.21;39.12;94453.22;5049900;28;21002;-78
2020/12/26 01:16:54;;;;;;;6.78;3.85;;;;;;;22.19;39.22;94447.50;5050469;28;20036;-77
2020/12/26 01:19:19;;;;;;;5.72;3.50;;;;;;;22.12;39.17;94439.94;5046622;28;20021;-76
2020/12/26 01:21:51;;;;;;;6.15;4.05;;;;;;;22.14;39.25;94440.16;5049917;28;20110;-77
2020/12/26 01:24:18;;;;;;;6.65;3.65;;;;;;;22.10;39.13;94439.72;5052181;28;20032;-78
2020/12/26 01:26:48;;;;;;;5.78;3.90;;;;;;;22.09;39.48;94440.22;5052707;28;20028;-78
2020/12/26 01:29:14;;;;;;;6.53;4.18;;;;;;;22.07;39.25;94431.84;5046951;28;20057;-78
2020/12/26 01:31:39;;;;;;;6.45;3.88;;;;;;;22.05;39.47;94434.34;5053113;28;20465;-77
2020/12/26 01:34:05;;;;;;;5.85;3.55;;;;;;;22.02;39.46;94433.41;5051676;28;20020;-76
2020/12/26 01:36:30;;;;;;;5.55;3.63;;;;;;;22.00;39.56;94427.75;5068935;28;20490;-76
2020/12/26 01:38:56;;;;;;;5.60;4.10;;;;;;;21.97;39.62;94431.50;5052396;28;20029;-77
2020/12/26 01:41:21;;;;;;;5.97;4.00;;;;;;;21.93;39.71;94417.44;5045973;28;20572;-81
2020/12/26 01:44:13;;;;;;;6.50;3.67;;;;;;;21.93;39.59;94412.00;5043256;28;20039;-78
2020/12/26 01:46:38;;;;;;;6.65;3.65;;;;;;;21.92;40.03;94411.78;5050466;28;20098;-78
2020/12/26 01:49:03;;;;;;;5.10;3.40;;;;;;;21.86;39.67;94400.97;5048242;28;20028;-77
2020/12/26 01:51:30;;;;;;;5.18;3.30;;;;;;;21.87;39.72;94412.59;5033507;28;20020;-78
2020/12/26 01:53:56;;;;;;;5.32;3.38;;;;;;;21.86;39.81;94405.69;5051096;28;20037;-76
2020/12/26 01:56:21;;;;;;;6.38;3.70;;;;;;;21.79;39.95;94389.97;5050513;28;20586;-79
2020/12/26 01:58:47;;;;;;;6.75;4.05;;;;;;;21.78;39.58;94396.63;5046431;28;20041;-77
2020/12/26 02:01:12;;;;;;;5.22;3.40;;;;;;;21.78;39.85;94400.09;5052730;28;20031;-77
2020/12/26 02:03:40;;;;;;;5.75;3.30;;;;;;;21.74;39.78;94404.38;5048221;28;20507;-77
2020/12/26 02:06:07;;;;;;;5.95;3.63;;;;;;;21.75;39.91;94394.94;5048139;28;20100;-78
2020/12/26 02:08:33;;;;;;;5.57;3.53;;;;;;;21.72;40.01;94401.41;5048275;28;20051;-77
2020/12/26 02:10:58;;;;;;;5.03;3.45;;;;;;;21.69;39.96;94402.47;5045633;28;20098;-78
2020/12/26 02:13:24;;;;;;;6.15;3.47;;;;;;;21.71;40.04;94405.38;5045504;28;20032;-77
2020/12/26 02:16:05;;;;;;;4.55;3.20;;;;;;;21.56;39.97;94388.78;5047660;28;20934;-77
2020/12/26 02:18:34;;;;;;;5.22;3.22;;;;;;;21.67;40.07;94399.50;5048703;28;20036;-78
2020/12/26 02:21:02;;;;;;;7.45;3.75;;;;;;;21.65;39.94;94407.44;5066870;28;20036;-77
2020/12/26 02:23:28;;;;;;;5.03;3.42;;;;;;;21.64;40.21;94411.38;5048273;28;20017;-78
2020/12/26 02:25:57;;;;;;;5.75;3.78;;;;;;;21.58;40.21;94408.00;5050209;28;20034;-77
2020/12/26 02:28:25;;;;;;;5.75;3.45;;;;;;;21.62;40.09;94413.91;5046597;28;20028;-77
2020/12/26 02:30:51;;;;;;;5.57;3.28;;;;;;;21.60;40.43;94416.41;5043550;28;20029;-77
2020/12/26 02:33:17;;;;;;;6.28;3.92;;;;;;;21.59;40.14;94404.78;5050141;28;20035;-77
2020/12/26 02:35:48;;;;;;;6.05;3.67;;;;;;;21.58;40.25;94418.88;5048218;28;20386;-78
2020/12/26 02:38:14;;;;;;;5.55;3.60;;;;;;;21.56;40.06;94408.50;5050359;28;20048;-77
2020/12/26 02:40:40;;;;;;;4.55;3.20;;;;;;;21.57;40.46;94406.56;5046186;28;20019;-78
2020/12/26 02:43:15;;;;;;;4.85;3.33;;;;;;;21.52;40.41;94405.38;5046876;28;20086;-78
2020/12/26 02:45:41;;;;;;;4.97;3.10;;;;;;;21.43;40.16;94405.69;5050116;28;20032;-77
2020/12/26 02:48:06;;;;;;;5.28;3.28;;;;;;;21.37;40.47;94406.97;5060452;28;20485;-78
2020/12/26 02:50:31;;;;;;;5.53;3.50;;;;;;;21.50;40.43;94426.13;5052393;28;20037;-75
2020/12/26 02:52:57;;;;;;;5.50;3.33;;;;;;;21.47;40.49;94429.88;5048531;28;20025;-77
2020/12/26 02:55:22;;;;;;;4.75;3.65;;;;;;;21.48;40.34;94442.22;5047718;28;20036;-77
2020/12/26 02:57:49;;;;;;;5.32;3.47;;;;;;;21.44;40.52;94436.28;5051626;28;20926;-79
2020/12/26 03:00:15;;;;;;;6.00;3.28;;;;;;;21.43;40.33;94442.97;5053709;28;20040;-78
2020/12/26 03:02:40;;;;;;;5.55;3.67;;;;;;;21.39;40.37;94436.34;5054794;28;20021;-77
2020/12/26 03:05:06;;;;;;;4.72;3.03;;;;;;;21.45;40.42;94443.19;5055125;28;20033;-77
2020/12/26 03:07:31;;;;;;;4.97;3.25;;;;;;;21.42;40.49;94438.78;5052122;28;20489;-78
2020/12/26 03:09:56;;;;;;;4.72;3.38;;;;;;;21.40;40.55;94435.81;5054586;28;20036;-78
2020/12/26 03:12:22;;;;;;;4.38;3.10;;;;;;;21.36;40.59;94427.25;5045739;28;20021;-78
2020/12/26 03:14:47;;;;;;;4.55;2.83;;;;;;;20.95;40.53;94368.19;5053031;28;20025;-77
2020/12/26 03:17:13;;;;;;;5.10;3.30;;;;;;;21.36;40.62;94435.41;5053114;28;20028;-77
2020/12/26 03:19:38;;;;;;;5.35;3.28;;;;;;;21.37;40.63;94439.56;5051185;28;20098;-77
2020/12/26 03:22:03;;;;;;;5.25;3.25;;;;;;;21.37;40.49;94453.13;5056595;28;20025;-78
2020/12/26 03:24:29;;;;;;;4.95;3.40;;;;;;;21.36;40.50;94451.69;5049698;28;20477;-78
2020/12/26 03:26:54;;;;;;;4.88;3.15;;;;;;;21.36;40.50;94445.50;5053539;28;20032;-78
2020/12/26 03:29:20;;;;;;;4.95;3.28;;;;;;;21.35;40.58;94455.63;5053928;28;20036;-79
2020/12/26 03:31:45;;;;;;;5.68;3.47;;;;;;;21.30;40.44;94461.88;5054918;28;20501;-77
2020/12/26 03:34:10;;;;;;;4.25;3.20;;;;;;;21.29;40.64;94449.53;5049156;28;20385;-78
2020/12/26 03:36:36;;;;;;;5.72;3.30;;;;;;;21.28;40.72;94444.59;5050359;28;20022;-78
2020/12/26 03:39:01;;;;;;;5.82;3.50;;;;;;;21.28;40.58;94439.91;5052101;28;20029;-77
2020/12/26 03:41:27;;;;;;;5.28;3.40;;;;;;;21.30;40.63;94442.09;5055412;28;20029;-77
2020/12/26 03:43:52;;;;;;;5.40;3.88;;;;;;;21.25;40.68;94446.34;5049863;28;20028;-78
2020/12/26 03:46:17;;;;;;;5.65;3.30;;;;;;;21.28;40.82;94450.03;5047181;28;20029;-77
2020/12/26 03:48:43;;;;;;;5.13;3.30;;;;;;;21.27;40.78;94449.31;5052249;28;20378;-78
2020/12/26 03:51:08;;;;;;;4.63;3.05;;;;;;;21.32;40.89;94448.50;5051536;28;20079;-76
2020/12/26 03:53:34;;;;;;;4.50;3.00;;;;;;;21.35;40.70;94444.78;5054203;28;20040;-77
2020/12/26 03:55:59;;;;;;;5.05;3.25;;;;;;;21.41;40.70;94452.88;5052973;28;20052;-78
2020/12/26 03:58:24;;;;;;;5.25;3.03;;;;;;;21.43;40.57;94451.09;5048704;28;20035;-78
2020/12/26 04:00:50;;;;;;;5.32;3.35;;;;;;;21.48;40.28;94444.94;5050780;28;20029;-77
2020/12/26 04:03:15;;;;;;;4.75;3.20;;;;;;;21.51;40.47;94430.31;5064182;28;20017;-77
2020/12/26 04:05:41;;;;;;;5.13;3.50;;;;;;;21.55;40.43;94436.19;5056523;28;20036;-78
2020/12/26 04:08:06;;;;;;;5.05;3.45;;;;;;;21.59;40.44;94442.09;5053146;28;20032;-76
2020/12/26 04:10:32;;;;;;;4.68;3.28;;;;;;;21.62;40.32;94446.50;5056551;28;20036;-79
2020/12/26 04:12:58;;;;;;;4.68;2.92;;;;;;;21.65;40.37;94434.59;5047871;28;20029;-76
2020/12/26 04:15:23;;;;;;;4.88;3.05;;;;;;;21.68;40.40;94439.03;5047796;28;20079;-78
2020/12/26 04:17:49;;;;;;;4.65;3.00;;;;;;;21.57;40.37;94411.97;5050575;28;20495;-81
2020/12/26 04:20:14;;;;;;;4.07;2.97;;;;;;;21.74;40.21;94434.25;5034039;28;20025;-77
2020/12/26 04:22:39;;;;;;;4.40;2.90;;;;;;;21.56;40.06;94411.22;5059915;28;20029;-80
2020/12/26 04:25:05;;;;;;;3.95;2.72;;;;;;;21.78;40.08;94432.72;5046274;28;20032;-77
2020/12/26 04:27:30;;;;;;;3.97;3.00;;;;;;;21.77;40.05;94425.81;5053044;28;20028;-77
2020/12/26 04:29:56;;;;;;;4.30;3.10;;;;;;;21.85;39.94;94426.69;5047184;28;20762;-84
2020/12/26 04:32:21;;;;;;;3.65;2.78;;;;;;;21.86;39.97;94430.88;5053405;28;20029;-77
2020/12/26 04:34:46;;;;;;;4.20;3.10;;;;;;;21.90;40.30;94427.88;5052835;28;20405;-77
2020/12/26 04:37:12;;;;;;;5.13;3.20;;;;;;;21.92;40.01;94428.09;5069962;28;20040;-78
2020/12/26 04:39:38;;;;;;;4.18;2.80;;;;;;;21.93;39.98;94428.31;5047631;28;20390;-77
2020/12/26 04:42:04;;;;;;;5.00;3.50;;;;;;;21.95;39.95;94419.66;5050703;28;20056;-78
2020/12/26 04:44:29;;;;;;;4.85;3.05;;;;;;;21.96;39.86;94416.41;5030955;28;20032;-76
2020/12/26 04:46:55;;;;;;;5.32;3.00;;;;;;;21.98;39.96;94408.47;5030905;28;20044;-79
2020/12/26 04:49:20;;;;;;;5.10;2.90;;;;;;;21.99;39.86;94407.22;5035853;28;20024;-78
2020/12/26 04:51:46;;;;;;;4.13;2.75;;;;;;;22.01;39.86;94409.44;5052026;28;20036;-78
2020/12/26 04:54:19;;;;;;;4.05;2.70;;;;;;;22.03;39.86;94421.28;5034707;28;20032;-78
2020/12/26 04:56:44;;;;;;;4.30;3.03;;;;;;;22.05;39.84;94418.78;5068382;28;20433;-78
2020/12/26 04:59:11;;;;;;;3.92;3.00;;;;;;;22.05;39.80;94424.22;5046398;28;20017;-76
2020/12/26 05:01:37;;;;;;;4.47;2.85;;;;;;;22.05;39.87;94418.78;5031246;28;20041;-78
2020/12/26 05:04:03;;;;;;;4.70;2.60;;;;;;;22.11;39.83;94424.88;5052293;28;20029;-78
2020/12/26 05:06:30;;;;;;;3.80;2.85;;;;;;;22.09;39.82;94435.53;5049283;28;20043;-78
2020/12/26 05:08:55;;;;;;;4.15;2.50;;;;;;;22.13;39.74;94435.22;5048560;28;20037;-78
2020/12/26 05:11:21;;;;;;;4.05;2.78;;;;;;;22.12;39.89;94429.06;5050002;28;20032;-78
2020/12/26 05:13:46;;;;;;;3.83;2.80;;;;;;;22.11;39.63;94424.88;5064633;28;20047;-78
2020/12/26 05:16:11;;;;;;;3.25;2.55;;;;;;;22.16;39.54;94424.06;5054488;28;20032;-78
2020/12/26 05:18:38;;;;;;;3.95;2.75;;;;;;;22.17;39.76;94430.97;5055287;28;20459;-78
2020/12/26 05:21:04;;;;;;;4.32;2.78;;;;;;;22.19;39.79;94433.91;5054529;28;20040;-78
2020/12/26 05:23:29;;;;;;;4.57;2.90;;;;;;;22.20;39.49;94432.66;5048989;28;20012;-79
2020/12/26 05:25:54;;;;;;;3.72;2.40;;;;;;;22.21;39.58;94426.00;5051908;28;20032;-79
2020/12/26 05:28:21;;;;;;;3.80;2.53;;;;;;;22.22;39.72;94432.19;5050522;28;20388;-78
2020/12/26 05:30:50;;;;;;;3.50;2.70;;;;;;;22.23;39.59;94433.66;5046787;28;20111;-78
2020/12/26 05:33:16;;;;;;;4.22;2.53;;;;;;;22.25;39.56;94437.31;5049186;28;20035;-79
2020/12/26 05:35:45;;;;;;;4.05;2.60;;;;;;;22.21;39.83;94426.00;5047367;28;20017;-79
2020/12/26 05:38:24;;;;;;;3.40;2.70;;;;;;;22.26;39.61;94427.91;5048224;28;20044;-78
2020/12/26 05:40:52;;;;;;;3.70;2.70;;;;;;;22.26;39.63;94427.91;5050773;28;20410;-78
2020/12/26 05:43:22;;;;;;;4.57;2.95;;;;;;;22.26;39.59;94433.34;5052641;28;20028;-77
2020/12/26 05:45:48;;;;;;;3.28;2.50;;;;;;;22.29;39.58;94443.19;5031875;28;20563;-77
2020/12/26 05:48:18;;;;;;;3.75;2.70;;;;;;;22.29;39.61;94437.75;5045388;28;20012;-78
2020/12/26 05:50:43;;;;;;;4.20;2.70;;;;;;;22.32;39.57;94450.31;5002165;28;20048;-77
2020/12/26 05:53:11;;;;;;;3.45;2.30;;;;;;;22.29;39.67;94443.19;5054814;28;20467;-78
2020/12/26 05:55:46;;;;;;;3.42;2.50;;;;;;;22.32;39.63;94442.16;5047632;28;20036;-78
2020/12/26 05:58:12;;;;;;;4.18;2.65;;;;;;;22.32;39.55;94436.72;5066962;28;20024;-79
2020/12/26 06:00:41;;;;;;;3.17;2.33;;;;;;;22.32;39.60;94436.00;5064829;28;20033;-79
2020/12/26 06:03:19;;;;;;;3.90;2.37;;;;;;;22.35;39.61;94441.13;5034198;28;20060;-78
2020/12/26 06:05:46;;;;;;;3.42;2.40;;;;;;;22.35;39.62;94445.84;5047268;28;20032;-79
2020/12/26 06:08:12;;;;;;;3.70;2.55;;;;;;;22.34;39.45;94445.09;5049036;28;20048;-77
2020/12/26 06:10:37;;;;;;;3.25;2.28;;;;;;;22.33;39.88;94449.09;5045045;28;20667;-79
2020/12/26 06:13:03;;;;;;;3.05;2.20;;;;;;;22.33;39.80;94457.25;5045419;28;20409;-77
2020/12/26 06:15:28;;;;;;;3.47;2.40;;;;;;;22.31;39.64;94462.44;5018912;28;20032;-78
2020/12/26 06:17:54;;;;;;;3.55;2.25;;;;;;;22.32;39.62;94474.81;5017062;28;20025;-77
2020/12/26 06:20:19;;;;;;;3.78;2.58;;;;;;;22.31;39.50;94465.16;5028046;28;20028;-79
2020/12/26 06:22:48;;;;;;;3.42;2.60;;;;;;;22.34;39.44;94477.75;5052718;28;20017;-74
2020/12/26 06:25:21;;;;;;;3.60;2.53;;;;;;;22.39;39.49;94468.78;5045752;28;20067;-78
2020/12/26 06:27:56;;;;;;;3.85;2.40;;;;;;;22.40;39.37;94475.69;5051937;28;20078;-76
2020/12/26 06:30:22;;;;;;;3.47;2.28;;;;;;;22.40;39.55;94470.25;5049179;28;20044;-74
2020/12/26 06:32:49;;;;;;;3.42;2.47;;;;;;;22.40;39.47;94464.78;5044708;28;20466;-74
2020/12/26 06:35:14;;;;;;;3.35;2.60;;;;;;;22.44;39.58;94481.56;5044235;28;20450;-80
2020/12/26 06:37:40;;;;;;;3.10;2.40;;;;;;;22.45;39.61;94472.13;5044498;28;20036;-75
2020/12/26 06:40:23;;;;;;;3.15;2.20;;;;;;;22.49;39.53;94472.59;5042447;28;20049;-74
2020/12/26 06:42:49;;;;;;;3.72;2.40;;;;;;;22.45;39.84;94467.44;5044257;28;20025;-79
2020/12/26 06:45:36;;;;;;;3.17;2.15;;;;;;;22.50;39.48;94484.94;5045778;28;20036;-76
2020/12/26 06:48:05;;;;;;;3.97;2.45;;;;;;;22.54;39.40;94474.47;5072857;28;20025;-77
2020/12/26 06:50:32;;;;;;;3.90;2.15;;;;;;;22.59;39.38;94473.69;5025990;28;20497;-74
2020/12/26 06:52:57;;;;;;;2.97;2.35;;;;;;;22.53;39.32;94478.47;5040667;28;20025;-74
2020/12/26 06:55:39;;;;;;;3.53;2.30;;;;;;;22.65;39.38;94475.06;5042578;28;20028;-81
2020/12/26 06:58:05;;;;;;;3.72;2.30;;;;;;;22.69;39.15;94485.66;5047855;28;20024;-76
2020/12/26 07:00:31;;;;;;;3.75;2.03;;;;;;;22.75;39.13;94492.50;5046481;28;20039;-80
2020/12/26 07:03:19;;;;;;;3.55;2.13;;;;;;;22.87;39.21;94490.34;5028042;28;20052;-75
2020/12/26 07:05:44;;;;;;;2.78;2.20;;;;;;;22.97;38.59;94479.31;5044016;28;20052;-75
2020/12/26 07:08:20;;;;;;;3.70;2.70;;;;;;;23.03;38.63;94476.50;5046409;28;20776;-74
2020/12/26 07:10:46;;;;;;;3.67;2.45;;;;;;;23.15;38.30;94466.88;5074313;28;20029;-76
2020/12/26 07:13:11;;;;;;;3.50;2.47;;;;;;;23.24;38.31;94467.22;5046775;28;20091;-77
2020/12/26 07:15:37;;;;;;;2.95;2.33;;;;;;;23.20;37.99;94446.97;5044642;28;20017;-75
2020/12/26 07:18:21;;;;;;;2.97;2.28;;;;;;;23.48;37.79;94477.94;5045438;28;20378;-75
2020/12/26 07:20:50;;;;;;;3.67;2.58;;;;;;;23.56;37.89;94465.91;5045934;28;20025;-76
2020/12/26 07:23:15;;;;;;;3.28;2.30;;;;;;;23.64;37.71;94457.88;5059936;28;20039;-77
2020/12/26 07:25:41;;;;;;;3.40;2.60;;;;;;;23.72;37.04;94458.69;5046148;28;20108;-78
2020/12/26 07:28:06;;;;;;;3.13;2.30;;;;;;;23.87;37.43;94471.28;5046195;28;20027;-76
2020/12/26 07:30:34;;;;;;;2.63;2.00;;;;;;;24.01;37.00;94474.75;5041280;28;20087;-74
2020/12/26 07:32:59;;;;;;;2.97;2.08;;;;;;;24.11;37.05;94484.69;5040568;28;20025;-74
2020/12/26 07:35:25;;;;;;;3.05;2.28;;;;;;;24.17;36.34;94477.13;5049618;28;20013;-75
2020/12/26 07:37:50;;;;;;;3.15;2.35;;;;;;;24.26;36.38;94473.22;5042463;28;20056;-74
2020/12/26 07:40:17;;;;;;;2.90;2.20;;;;;;;24.31;36.56;94470.38;5052903;28;20037;-79
2020/12/26 07:42:43;;;;;;;3.50;2.20;;;;;;;24.43;36.50;94482.56;5070221;28;20021;-77
2020/12/26 07:45:16;;;;;;;2.60;2.05;;;;;;;24.51;36.21;94477.91;5039491;28;20028;-79
2020/12/26 07:47:42;;;;;;;3.25;2.10;;;;;;;24.57;35.79;94476.56;5054543;28;20520;-78
2020/12/26 07:50:09;;;;;;;3.05;2.30;;;;;;;24.61;35.86;94470.75;5055143;28;20056;-76
2020/12/26 07:52:34;;;;;;;2.92;2.13;;;;;;;24.63;35.97;94479.13;5047589;28;20032;-76
2020/12/26 07:55:00;;;;;;;2.88;2.30;;;;;;;24.74;35.83;94484.34;5049221;28;20028;-78
2020/12/26 07:57:29;;;;;;;2.83;2.10;;;;;;;24.80;35.34;94476.75;5052468;28;20052;-78
2020/12/26 07:59:54;;;;;;;3.45;2.20;;;;;;;24.82;35.74;94468.78;5052450;28;20517;-82
2020/12/26 08:02:20;;;;;;;3.13;2.35;;;;;;;24.86;35.85;94470.66;5032611;28;20040;-78
2020/12/26 08:04:46;;;;;;;2.97;2.30;;;;;;;24.91;35.76;94467.03;5046880;28;20092;-79
2020/12/26 08:07:12;;;;;;;3.40;2.40;;;;;;;24.88;35.33;94461.94;5047198;28;20036;-76
2020/12/26 08:09:37;;;;;;;4.07;2.50;;;;;;;24.95;35.53;94478.38;5064032;28;20044;-75
2020/12/26 08:12:06;;;;;;;3.17;1.90;;;;;;;24.98;35.56;94471.84;5051639;28;20029;-79
2020/12/26 08:14:32;;;;;;;2.92;2.40;;;;;;;25.04;35.07;94475.22;5045831;28;20451;-77
2020/12/26 08:16:58;;;;;;;2.97;2.22;;;;;;;25.05;35.12;94465.78;5067262;28;21440;-77
2020/12/26 08:19:24;;;;;;;2.88;2.30;;;;;;;25.11;35.24;94473.81;5051410;28;20021;-74
2020/12/26 08:21:58;;;;;;;2.53;2.10;;;;;;;25.11;35.01;94474.56;5045995;28;20025;-80
2020/12/26 08:24:24;;;;;;;2.80;2.13;;;;;;;25.15;35.27;94474.94;5050077;28;20029;-81
2020/12/26 08:26:49;;;;;;;3.13;2.22;;;;;;;25.19;35.16;94491.75;5048506;28;20029;-77
2020/12/26 08:29:14;;;;;;;3.10;2.20;;;;;;;25.20;34.81;94476.84;5065170;28;20078;-77
2020/12/26 08:31:40;;;;;;;3.95;2.35;;;;;;;25.24;35.21;94471.03;5046382;28;20029;-83
2020/12/26 08:34:09;;;;;;;4.10;2.30;;;;;;;25.16;34.79;94462.75;5030579;28;20033;-79
2020/12/26 08:36:45;;;;;;;3.03;2.17;;;;;;;25.16;35.08;94457.28;5047999;28;20116;-80
2020/12/26 08:39:10;;;;;;;3.28;2.40;;;;;;;25.16;35.18;94454.56;5077213;28;20573;-75
2020/12/26 08:41:40;;;;;;;2.60;2.10;;;;;;;25.34;34.92;94480.94;5049797;28;20036;-74
2020/12/26 08:44:12;;;;;;;2.70;2.10;;;;;;;25.38;34.77;94492.25;5047878;28;20029;-80
2020/12/26 08:46:45;;;;;;;3.40;2.50;;;;;;;25.38;35.01;94486.78;5046558;28;20175;-75
2020/12/26 08:49:11;;;;;;;3.20;2.10;;;;;;;25.37;34.92;94485.34;5046066;28;20025;-73
2020/12/26 08:51:40;;;;;;;3.25;2.30;;;;;;;25.43;34.65;94488.69;5048962;28;20037;-76
2020/12/26 08:54:06;;;;;;;3.38;2.30;;;;;;;25.41;34.71;94480.25;5052388;28;20416;-81
2020/12/26 08:56:32;;;;;;;3.10;2.13;;;;;;;25.50;34.32;94482.50;5047529;28;20060;-74
2020/12/26 08:58:58;;;;;;;2.40;1.88;;;;;;;25.50;35.11;94477.03;5047119;28;20439;-74
2020/12/26 09:01:23;;;;;;;3.20;2.05;;;;;;;25.43;34.94;94450.41;5049758;28;20033;-76
2020/12/26 09:03:49;;;;;;;3.05;2.15;;;;;;;25.54;34.53;94480.91;5061125;28;20106;-77
2020/12/26 09:06:15;;;;;;;2.70;2.15;;;;;;;25.55;34.74;94473.47;5047912;28;20412;-77
2020/12/26 09:08:40;;;;;;;2.95;2.33;;;;;;;25.59;34.63;94462.91;5047152;28;20044;-79
2020/12/26 09:11:07;;;;;;;3.00;2.30;;;;;;;25.47;34.80;94456.25;5027924;28;20389;-77
2020/12/26 09:13:37;;;;;;;2.92;2.17;;;;;;;25.62;34.99;94459.09;5053002;28;20032;-76
2020/12/26 09:16:03;;;;;;;;;;;;;;;25.67;34.50;94458.25;5053958;28;20064;-77
2020/12/26 09:18:34;;;;;;;2.72;2.05;;;;;;;25.68;34.61;94463.19;5052038;28;19974;-78
2020/12/26 09:21:00;;;;;;;3.10;2.22;;;;;;;25.69;34.35;94483.06;5049418;28;20056;-79
2020/12/26 09:23:31;;;;;;;2.92;2.20;;;;;;;25.67;34.57;94447.31;5045294;28;20020;-76
2020/12/26 09:26:16;;;;;;;2.63;2.03;;;;;;;25.69;34.61;94444.75;5046342;28;20063;-75
2020/12/26 09:28:45;;;;;;;4.35;2.20;;;;;;;25.73;34.52;94450.63;5048750;28;20546;-75
2020/12/26 09:31:11;;;;;;;2.63;2.10;;;;;;;25.70;34.63;94440.78;5068440;28;20523;-74
2020/12/26 09:33:37;;;;;;;2.83;2.13;;;;;;;25.74;34.51;94446.59;5061867;28;20063;-76
2020/12/26 09:36:08;;;;;;;2.90;2.20;;;;;;;25.74;34.31;94452.09;5029622;28;20409;-75
2020/12/26 09:38:34;;;;;;;2.67;2.20;;;;;;;25.80;34.52;94445.94;5051875;28;20033;-76
2020/12/26 09:41:11;;;;;;;2.75;2.35;;;;;;;25.81;34.47;94436.47;5046136;28;20032;-72
2020/12/26 09:43:37;;;;;;;2.83;2.10;;;;;;;25.83;34.35;94450.31;5045723;28;20025;-74
2020/12/26 09:46:02;;;;;;;3.03;2.05;;;;;;;25.84;34.67;94454.53;5043718;28;20036;-73
2020/12/26 09:48:28;;;;;;;4.03;1.83;;;;;;;25.79;34.38;94453.97;5051310;28;20033;-73
2020/12/26 09:50:53;;;;;;;2.95;2.00;;;;;;;25.87;34.43;94453.47;5044375;28;20036;-72
2020/12/26 09:53:19;;;;;;;2.55;1.88;;;;;;;25.86;34.45;94457.47;5043936;28;20033;-71
2020/12/26 09:55:44;;;;;;;3.20;2.08;;;;;;;25.87;34.12;94450.72;5044756;28;20036;-71
2020/12/26 09:58:09;;;;;;;2.53;2.10;;;;;;;25.87;34.22;94453.47;5041062;28;20039;-74
2020/12/26 10:00:35;;;;;;;2.92;2.13;;;;;;;25.88;34.43;94435.75;5045028;28;20029;-72
2020/12/26 10:03:00;;;;;;;3.03;2.28;;;;;;;25.85;34.27;94436.84;5045955;28;20029;-73
2020/12/26 10:05:26;;;;;;;3.25;2.00;;;;;;;25.91;34.32;94456.56;5045527;28;20040;-72
2020/12/26 10:07:51;;;;;;;2.63;1.90;;;;;;;25.89;34.23;94450.91;5043832;28;20045;-71
2020/12/26 10:10:16;;;;;;;3.40;2.00;;;;;;;25.92;34.42;94441.63;5061515;28;20028;-72
2020/12/26 10:12:42;;;;;;;3.08;2.05;;;;;;;25.94;34.16;94439.06;5047590;28;20024;-71
2020/12/26 10:15:07;;;;;;;2.78;2.10;;;;;;;25.90;34.52;94424.28;5047118;28;20074;-72
2020/12/26 10:17:33;;;;;;;2.33;1.92;;;;;;;26.00;34.28;94453.34;5043806;28;20021;-73
2020/12/26 10:19:58;;;;;;;3.50;2.20;;;;;;;25.92;34.41;94421.75;5050648;28;20716;-73
2020/12/26 10:22:24;;;;;;;2.95;2.30;;;;;;;25.90;34.37;94433.22;5047384;28;20461;-71
2020/12/26 10:24:49;;;;;;;3.25;2.10;;;;;;;25.89;34.52;94445.44;5042645;28;20025;-72
2020/12/26 10:27:14;;;;;;;3.03;2.10;;;;;;;25.86;34.45;94438.31;5043987;28;20029;-72
2020/12/26 10:29:40;;;;;;;2.58;2.00;;;;;;;25.85;34.49;94442.31;5048189;28;20021;-72
2020/12/26 10:32:05;;;;;;;3.13;2.10;;;;;;;25.83;34.52;94428.44;5043290;28;20108;-71
2020/12/26 10:34:31;;;;;;;3.40;2.30;;;;;;;25.86;34.44;94415.69;5049782;28;20023;-72
2020/12/26 10:36:56;;;;;;;2.40;1.73;;;;;;;25.89;34.48;94437.22;5043460;28;20470;-71
2020/12/26 10:39:22;;;;;;;3.13;2.33;;;;;;;25.91;34.75;94437.41;5050261;28;20025;-72
2020/12/26 10:41:47;;;;;;;3.15;2.20;;;;;;;25.84;34.60;94434.63;5044489;28;20033;-74
2020/12/26 10:44:13;;;;;;;3.20;2.25;;;;;;;25.97;34.69;94431.78;5047987;28;20405;-72
2020/12/26 10:46:39;;;;;;;2.83;2.05;;;;;;;25.98;34.63;94434.00;5041934;28;20417;-72
2020/12/26 10:49:05;;;;;;;3.03;2.28;;;;;;;26.01;34.49;94438.38;5047693;28;20173;-71
2020/12/26 10:51:30;;;;;;;3.13;2.13;;;;;;;26.02;34.36;94439.09;5047642;28;20513;-75
2020/12/26 10:53:56;;;;;;;2.85;1.90;;;;;;;26.01;34.31;94449.34;5046005;28;20036;-73
2020/12/26 10:56:21;;;;;;;2.83;1.83;;;;;;;25.98;34.24;94450.41;5043808;28;20036;-73
2020/12/26 10:58:47;;;;;;;2.83;2.10;;;;;;;26.03;34.73;94446.78;5044599;28;20417;-69
2020/12/26 11:01:12;;;;;;;3.20;2.33;;;;;;;26.05;34.65;94444.25;5046277;28;20032;-72
2020/12/26 11:03:37;;;;;;;2.97;2.10;;;;;;;26.07;34.50;94446.41;5046277;28;20029;-73
2020/12/26 11:06:03;;;;;;;3.33;2.30;;;;;;;26.10;33.98;94443.34;5041179;28;20033;-72
2020/12/26 11:08:28;;;;;;;3.78;2.42;;;;;;;26.08;34.34;94448.63;5047937;28;20041;-75
2020/12/26 11:10:54;;;;;;;3.45;2.40;;;;;;;26.01;34.29;94438.38;5046210;28;20040;-73
2020/12/26 11:13:19;;;;;;;2.80;2.40;;;;;;;26.01;34.30;94460.28;5044782;28;20040;-72
2020/12/26 11:15:45;;;;;;;3.90;2.47;;;;;;;26.11;34.51;94453.00;5046389;28;20025;-72
2020/12/26 11:18:10;;;;;;;4.00;2.63;;;;;;;26.12;34.39;94448.28;5043129;28;20029;-72
2020/12/26 11:20:35;;;;;;;3.30;2.38;;;;;;;26.12;34.40;94443.53;5053625;28;20024;-75
2020/12/26 11:23:01;;;;;;;3.63;2.60;;;;;;;26.13;34.29;94455.97;5027755;28;20083;-75
2020/12/26 11:25:26;;;;;;;2.80;2.10;;;;;;;26.03;34.50;94432.38;5049154;28;20025;-74
2020/12/26 11:27:52;;;;;;;5.43;2.85;;;;;;;26.00;34.49;94409.53;5050972;28;20025;-73
2020/12/26 11:30:17;;;;;;;3.47;2.35;;;;;;;26.13;34.26;94439.53;5047908;28;20044;-73
2020/12/26 11:32:42;;;;;;;4.07;2.65;;;;;;;26.16;34.38;94416.56;5046128;28;20878;-74